sensor_id;sensor_type;location;lat;lon;timestamp;P1;durP1;ratioP1;P2;durP2;ratioP2
56541;SDS011;42438;53.174;6.730;2023-08-30T00:01:52;17.98;;;11.65;;
56541;SDS011;42438;53.174;6.730;2023-08-30T00:04:22;15.98;;;11.82;;
56541;SDS011;42438;53.174;6.730;2023-08-30T00:06:53;16.75;;;12.20;;
56541;SDS011;42438;53.174;6.730;2023-08-30T00:09:24;17.00;;;11.35;;
56541;SDS011;42438;53.174;6.730;2023-08-30T00:11:55;18.40;;;12.60;;
56541;SDS011;42438;53.174;6.730;2023-08-30T00:14:25;16.20;;;12.00;;
56541;SDS011;42438;53.174;6.730;2023-08-30T00:16:56;17.30;;;11.80;;
56541;SDS011;42438;53.174;6.730;2023-08-30T00:19:27;17.65;;;12.18;;
56541;SDS011;42438;53.174;6.730;2023-08-30T00:21:57;16.13;;;11.38;;
56541;SDS011;42438;53.174;6.730;2023-08-30T00:24:28;16.70;;;12.07;;
56541;SDS011;42438;53.174;6.730;2023-08-30T00:27:00;17.15;;;12.07;;
56541;SDS011;42438;53.174;6.730;2023-08-30T00:29:31;18.38;;;12.60;;
56541;SDS011;42438;53.174;6.730;2023-08-30T00:32:02;16.88;;;11.30;;
56541;SDS011;42438;53.174;6.730;2023-08-30T00:34:33;17.73;;;12.30;;
56541;SDS011;42438;53.174;6.730;2023-08-30T00:37:03;17.80;;;11.70;;
56541;SDS011;42438;53.174;6.730;2023-08-30T00:39:36;16.52;;;11.27;;
56541;SDS011;42438;53.174;6.730;2023-08-30T00:42:08;20.58;;;12.77;;
56541;SDS011;42438;53.174;6.730;2023-08-30T00:44:39;18.33;;;12.25;;
56541;SDS011;42438;53.174;6.730;2023-08-30T00:47:10;19.80;;;12.30;;
56541;SDS011;42438;53.174;6.730;2023-08-30T00:49:41;17.75;;;11.40;;
56541;SDS011;42438;53.174;6.730;2023-08-30T00:52:12;17.70;;;12.30;;
56541;SDS011;42438;53.174;6.730;2023-08-30T00:54:43;18.17;;;11.73;;
56541;SDS011;42438;53.174;6.730;2023-08-30T00:57:13;16.80;;;11.23;;
56541;SDS011;42438;53.174;6.730;2023-08-30T00:59:44;16.95;;;11.77;;
56541;SDS011;42438;53.174;6.730;2023-08-30T01:02:15;18.55;;;12.15;;
56541;SDS011;42438;53.174;6.730;2023-08-30T01:04:46;21.10;;;12.32;;
56541;SDS011;42438;53.174;6.730;2023-08-30T01:07:17;17.55;;;11.20;;
56541;SDS011;42438;53.174;6.730;2023-08-30T01:09:49;17.58;;;10.98;;
56541;SDS011;42438;53.174;6.730;2023-08-30T01:12:23;17.02;;;11.55;;
56541;SDS011;42438;53.174;6.730;2023-08-30T01:15:04;16.17;;;10.85;;
56541;SDS011;42438;53.174;6.730;2023-08-30T01:17:41;15.40;;;10.32;;
56541;SDS011;42438;53.174;6.730;2023-08-30T01:20:14;16.70;;;11.33;;
56541;SDS011;42438;53.174;6.730;2023-08-30T01:22:59;17.08;;;10.48;;
56541;SDS011;42438;53.174;6.730;2023-08-30T01:25:52;18.30;;;11.07;;
56541;SDS011;42438;53.174;6.730;2023-08-30T01:28:24;16.08;;;10.60;;
56541;SDS011;42438;53.174;6.730;2023-08-30T01:30:59;16.20;;;11.15;;
56541;SDS011;42438;53.174;6.730;2023-08-30T01:33:30;19.77;;;10.68;;
56541;SDS011;42438;53.174;6.730;2023-08-30T01:36:03;15.20;;;9.60;;
56541;SDS011;42438;53.174;6.730;2023-08-30T01:38:34;17.25;;;10.60;;
56541;SDS011;42438;53.174;6.730;2023-08-30T01:41:06;15.80;;;9.75;;
56541;SDS011;42438;53.174;6.730;2023-08-30T01:43:37;15.80;;;10.18;;
56541;SDS011;42438;53.174;6.730;2023-08-30T01:46:08;14.88;;;10.00;;
56541;SDS011;42438;53.174;6.730;2023-08-30T01:48:40;15.02;;;10.05;;
56541;SDS011;42438;53.174;6.730;2023-08-30T01:51:13;16.52;;;10.30;;
56541;SDS011;42438;53.174;6.730;2023-08-30T01:53:46;14.48;;;9.90;;
56541;SDS011;42438;53.174;6.730;2023-08-30T01:56:19;17.75;;;10.07;;
56541;SDS011;42438;53.174;6.730;2023-08-30T01:58:50;16.58;;;10.32;;
56541;SDS011;42438;53.174;6.730;2023-08-30T02:01:21;16.60;;;9.88;;
56541;SDS011;42438;53.174;6.730;2023-08-30T02:03:51;15.20;;;9.82;;
56541;SDS011;42438;53.174;6.730;2023-08-30T02:06:26;17.63;;;10.55;;
56541;SDS011;42438;53.174;6.730;2023-08-30T02:09:14;13.30;;;9.40;;
56541;SDS011;42438;53.174;6.730;2023-08-30T02:11:55;16.38;;;9.98;;
56541;SDS011;42438;53.174;6.730;2023-08-30T02:14:29;15.43;;;10.23;;
56541;SDS011;42438;53.174;6.730;2023-08-30T02:17:01;20.05;;;11.73;;
56541;SDS011;42438;53.174;6.730;2023-08-30T02:19:33;15.45;;;10.50;;
56541;SDS011;42438;53.174;6.730;2023-08-30T02:22:04;18.40;;;10.50;;
56541;SDS011;42438;53.174;6.730;2023-08-30T02:24:35;15.82;;;9.68;;
56541;SDS011;42438;53.174;6.730;2023-08-30T02:27:05;16.58;;;10.20;;
56541;SDS011;42438;53.174;6.730;2023-08-30T02:29:36;16.67;;;10.07;;
56541;SDS011;42438;53.174;6.730;2023-08-30T02:32:06;16.92;;;10.68;;
56541;SDS011;42438;53.174;6.730;2023-08-30T02:34:37;18.35;;;10.43;;
56541;SDS011;42438;53.174;6.730;2023-08-30T02:37:08;16.83;;;10.40;;
56541;SDS011;42438;53.174;6.730;2023-08-30T02:39:40;14.70;;;9.52;;
56541;SDS011;42438;53.174;6.730;2023-08-30T02:42:10;16.58;;;10.43;;
56541;SDS011;42438;53.174;6.730;2023-08-30T02:44:41;15.45;;;10.18;;
56541;SDS011;42438;53.174;6.730;2023-08-30T02:47:12;15.02;;;9.73;;
56541;SDS011;42438;53.174;6.730;2023-08-30T02:49:42;15.05;;;9.60;;
56541;SDS011;42438;53.174;6.730;2023-08-30T02:52:13;15.13;;;9.40;;
56541;SDS011;42438;53.174;6.730;2023-08-30T02:54:44;15.32;;;9.77;;
56541;SDS011;42438;53.174;6.730;2023-08-30T02:57:14;17.05;;;9.80;;
56541;SDS011;42438;53.174;6.730;2023-08-30T02:59:45;15.60;;;9.95;;
56541;SDS011;42438;53.174;6.730;2023-08-30T03:02:16;16.02;;;10.02;;
56541;SDS011;42438;53.174;6.730;2023-08-30T03:04:46;14.73;;;9.52;;
56541;SDS011;42438;53.174;6.730;2023-08-30T03:07:17;16.13;;;9.93;;
56541;SDS011;42438;53.174;6.730;2023-08-30T03:09:51;15.77;;;9.73;;
56541;SDS011;42438;53.174;6.730;2023-08-30T03:12:23;16.50;;;9.38;;
56541;SDS011;42438;53.174;6.730;2023-08-30T03:14:53;15.35;;;8.52;;
56541;SDS011;42438;53.174;6.730;2023-08-30T03:17:24;15.77;;;9.23;;
56541;SDS011;42438;53.174;6.730;2023-08-30T03:19:55;16.90;;;8.90;;
56541;SDS011;42438;53.174;6.730;2023-08-30T03:22:26;16.00;;;9.27;;
56541;SDS011;42438;53.174;6.730;2023-08-30T03:24:56;15.52;;;9.50;;
56541;SDS011;42438;53.174;6.730;2023-08-30T03:27:27;14.73;;;9.05;;
56541;SDS011;42438;53.174;6.730;2023-08-30T03:29:57;16.52;;;9.88;;
56541;SDS011;42438;53.174;6.730;2023-08-30T03:32:28;16.65;;;9.93;;
56541;SDS011;42438;53.174;6.730;2023-08-30T03:35:00;16.35;;;10.85;;
56541;SDS011;42438;53.174;6.730;2023-08-30T03:37:31;14.70;;;9.20;;
56541;SDS011;42438;53.174;6.730;2023-08-30T03:40:01;17.48;;;10.32;;
56541;SDS011;42438;53.174;6.730;2023-08-30T03:42:34;14.82;;;9.23;;
56541;SDS011;42438;53.174;6.730;2023-08-30T03:45:05;17.58;;;10.48;;
56541;SDS011;42438;53.174;6.730;2023-08-30T03:47:36;16.60;;;10.82;;
56541;SDS011;42438;53.174;6.730;2023-08-30T03:50:07;15.30;;;9.95;;
56541;SDS011;42438;53.174;6.730;2023-08-30T03:52:39;19.05;;;10.63;;
56541;SDS011;42438;53.174;6.730;2023-08-30T03:55:09;18.42;;;10.13;;
56541;SDS011;42438;53.174;6.730;2023-08-30T03:57:40;16.75;;;10.85;;
56541;SDS011;42438;53.174;6.730;2023-08-30T04:00:11;17.02;;;10.07;;
56541;SDS011;42438;53.174;6.730;2023-08-30T04:02:42;15.48;;;9.32;;
56541;SDS011;42438;53.174;6.730;2023-08-30T04:05:14;14.90;;;9.57;;
56541;SDS011;42438;53.174;6.730;2023-08-30T04:07:44;15.60;;;9.90;;
56541;SDS011;42438;53.174;6.730;2023-08-30T04:10:15;16.73;;;10.13;;
56541;SDS011;42438;53.174;6.730;2023-08-30T04:12:46;14.27;;;9.30;;
56541;SDS011;42438;53.174;6.730;2023-08-30T04:15:16;15.98;;;9.35;;
56541;SDS011;42438;53.174;6.730;2023-08-30T04:17:47;15.52;;;9.65;;
56541;SDS011;42438;53.174;6.730;2023-08-30T04:20:18;14.38;;;9.38;;
56541;SDS011;42438;53.174;6.730;2023-08-30T04:22:48;17.77;;;9.82;;
56541;SDS011;42438;53.174;6.730;2023-08-30T04:25:19;14.75;;;9.20;;
56541;SDS011;42438;53.174;6.730;2023-08-30T04:27:50;16.48;;;9.90;;
56541;SDS011;42438;53.174;6.730;2023-08-30T04:30:20;15.25;;;9.60;;
56541;SDS011;42438;53.174;6.730;2023-08-30T04:32:51;17.35;;;9.70;;
56541;SDS011;42438;53.174;6.730;2023-08-30T04:35:22;16.50;;;9.73;;
56541;SDS011;42438;53.174;6.730;2023-08-30T04:37:53;15.93;;;10.30;;
56541;SDS011;42438;53.174;6.730;2023-08-30T04:40:23;14.25;;;9.43;;
56541;SDS011;42438;53.174;6.730;2023-08-30T04:42:54;17.52;;;10.18;;
56541;SDS011;42438;53.174;6.730;2023-08-30T04:45:25;14.98;;;9.85;;
56541;SDS011;42438;53.174;6.730;2023-08-30T04:47:56;15.25;;;10.05;;
56541;SDS011;42438;53.174;6.730;2023-08-30T04:50:27;19.67;;;10.32;;
56541;SDS011;42438;53.174;6.730;2023-08-30T04:52:57;15.05;;;9.80;;
56541;SDS011;42438;53.174;6.730;2023-08-30T04:55:28;15.55;;;9.77;;
56541;SDS011;42438;53.174;6.730;2023-08-30T04:57:59;16.35;;;10.10;;
56541;SDS011;42438;53.174;6.730;2023-08-30T05:00:30;16.20;;;9.80;;
56541;SDS011;42438;53.174;6.730;2023-08-30T05:03:01;16.20;;;9.73;;
56541;SDS011;42438;53.174;6.730;2023-08-30T05:05:32;15.73;;;9.65;;
56541;SDS011;42438;53.174;6.730;2023-08-30T05:08:04;15.53;;;9.73;;
56541;SDS011;42438;53.174;6.730;2023-08-30T05:10:35;17.55;;;10.20;;
56541;SDS011;42438;53.174;6.730;2023-08-30T05:13:06;17.70;;;9.48;;
56541;SDS011;42438;53.174;6.730;2023-08-30T05:15:36;16.95;;;10.45;;
56541;SDS011;42438;53.174;6.730;2023-08-30T05:18:07;15.63;;;10.05;;
56541;SDS011;42438;53.174;6.730;2023-08-30T05:20:38;16.02;;;9.75;;
56541;SDS011;42438;53.174;6.730;2023-08-30T05:23:08;18.15;;;10.32;;
56541;SDS011;42438;53.174;6.730;2023-08-30T05:25:39;17.80;;;10.23;;
56541;SDS011;42438;53.174;6.730;2023-08-30T05:28:10;18.40;;;10.07;;
56541;SDS011;42438;53.174;6.730;2023-08-30T05:30:41;16.70;;;10.07;;
56541;SDS011;42438;53.174;6.730;2023-08-30T05:33:13;16.70;;;10.20;;
56541;SDS011;42438;53.174;6.730;2023-08-30T05:35:44;17.42;;;9.80;;
56541;SDS011;42438;53.174;6.730;2023-08-30T05:38:14;19.88;;;10.55;;
56541;SDS011;42438;53.174;6.730;2023-08-30T05:40:45;18.98;;;10.90;;
56541;SDS011;42438;53.174;6.730;2023-08-30T05:43:16;17.85;;;10.88;;
56541;SDS011;42438;53.174;6.730;2023-08-30T05:45:48;16.85;;;10.98;;
56541;SDS011;42438;53.174;6.730;2023-08-30T05:48:18;17.48;;;10.63;;
56541;SDS011;42438;53.174;6.730;2023-08-30T05:50:49;17.80;;;11.10;;
56541;SDS011;42438;53.174;6.730;2023-08-30T05:53:20;17.33;;;10.40;;
56541;SDS011;42438;53.174;6.730;2023-08-30T05:55:50;17.33;;;9.73;;
56541;SDS011;42438;53.174;6.730;2023-08-30T05:58:21;17.90;;;9.80;;
56541;SDS011;42438;53.174;6.730;2023-08-30T06:00:52;18.40;;;10.10;;
56541;SDS011;42438;53.174;6.730;2023-08-30T06:03:22;17.35;;;10.43;;
56541;SDS011;42438;53.174;6.730;2023-08-30T06:05:53;17.77;;;10.75;;
56541;SDS011;42438;53.174;6.730;2023-08-30T06:08:24;16.92;;;10.73;;
56541;SDS011;42438;53.174;6.730;2023-08-30T06:10:55;17.08;;;10.32;;
56541;SDS011;42438;53.174;6.730;2023-08-30T06:13:25;17.88;;;9.63;;
56541;SDS011;42438;53.174;6.730;2023-08-30T06:15:56;17.13;;;9.90;;
56541;SDS011;42438;53.174;6.730;2023-08-30T06:18:29;16.23;;;9.82;;
56541;SDS011;42438;53.174;6.730;2023-08-30T06:21:00;17.02;;;10.00;;
56541;SDS011;42438;53.174;6.730;2023-08-30T06:23:32;18.52;;;10.23;;
56541;SDS011;42438;53.174;6.730;2023-08-30T06:26:04;17.63;;;9.98;;
56541;SDS011;42438;53.174;6.730;2023-08-30T06:28:34;16.95;;;9.40;;
56541;SDS011;42438;53.174;6.730;2023-08-30T06:31:05;16.17;;;9.18;;
56541;SDS011;42438;53.174;6.730;2023-08-30T06:33:36;16.67;;;9.68;;
56541;SDS011;42438;53.174;6.730;2023-08-30T06:36:08;15.25;;;8.93;;
56541;SDS011;42438;53.174;6.730;2023-08-30T06:38:41;23.33;;;10.05;;
56541;SDS011;42438;53.174;6.730;2023-08-30T06:41:12;16.90;;;9.57;;
56541;SDS011;42438;53.174;6.730;2023-08-30T06:43:43;17.00;;;9.50;;
56541;SDS011;42438;53.174;6.730;2023-08-30T06:46:13;14.77;;;8.52;;
56541;SDS011;42438;53.174;6.730;2023-08-30T06:48:44;15.10;;;8.98;;
56541;SDS011;42438;53.174;6.730;2023-08-30T06:51:15;15.32;;;8.90;;
56541;SDS011;42438;53.174;6.730;2023-08-30T06:53:45;18.30;;;8.60;;
56541;SDS011;42438;53.174;6.730;2023-08-30T06:56:17;15.60;;;8.57;;
56541;SDS011;42438;53.174;6.730;2023-08-30T06:58:47;14.30;;;8.02;;
56541;SDS011;42438;53.174;6.730;2023-08-30T07:01:18;14.90;;;8.30;;
56541;SDS011;42438;53.174;6.730;2023-08-30T07:03:49;14.88;;;8.05;;
56541;SDS011;42438;53.174;6.730;2023-08-30T07:06:19;14.80;;;8.30;;
56541;SDS011;42438;53.174;6.730;2023-08-30T07:08:50;16.67;;;8.10;;
56541;SDS011;42438;53.174;6.730;2023-08-30T07:11:21;14.30;;;8.40;;
56541;SDS011;42438;53.174;6.730;2023-08-30T07:13:52;15.60;;;7.70;;
56541;SDS011;42438;53.174;6.730;2023-08-30T07:16:22;16.48;;;8.27;;
56541;SDS011;42438;53.174;6.730;2023-08-30T07:18:53;13.43;;;7.40;;
56541;SDS011;42438;53.174;6.730;2023-08-30T07:21:24;14.98;;;7.82;;
56541;SDS011;42438;53.174;6.730;2023-08-30T07:23:55;15.52;;;8.05;;
56541;SDS011;42438;53.174;6.730;2023-08-30T07:26:25;13.98;;;7.60;;
56541;SDS011;42438;53.174;6.730;2023-08-30T07:28:56;17.25;;;8.57;;
56541;SDS011;42438;53.174;6.730;2023-08-30T07:31:27;14.65;;;7.55;;
56541;SDS011;42438;53.174;6.730;2023-08-30T07:33:57;13.73;;;7.53;;
56541;SDS011;42438;53.174;6.730;2023-08-30T07:36:29;11.48;;;7.10;;
56541;SDS011;42438;53.174;6.730;2023-08-30T07:39:02;13.48;;;7.18;;
56541;SDS011;42438;53.174;6.730;2023-08-30T07:41:33;16.23;;;7.55;;
56541;SDS011;42438;53.174;6.730;2023-08-30T07:44:04;13.30;;;7.78;;
56541;SDS011;42438;53.174;6.730;2023-08-30T07:46:35;13.15;;;7.45;;
56541;SDS011;42438;53.174;6.730;2023-08-30T07:49:05;13.45;;;7.45;;
56541;SDS011;42438;53.174;6.730;2023-08-30T07:51:36;15.38;;;7.55;;
56541;SDS011;42438;53.174;6.730;2023-08-30T07:54:07;14.00;;;8.23;;
56541;SDS011;42438;53.174;6.730;2023-08-30T07:56:37;13.10;;;7.28;;
56541;SDS011;42438;53.174;6.730;2023-08-30T07:59:08;14.48;;;8.38;;
56541;SDS011;42438;53.174;6.730;2023-08-30T08:01:39;13.57;;;7.60;;
56541;SDS011;42438;53.174;6.730;2023-08-30T08:04:10;15.55;;;8.15;;
56541;SDS011;42438;53.174;6.730;2023-08-30T08:06:41;12.45;;;8.13;;
56541;SDS011;42438;53.174;6.730;2023-08-30T08:09:11;14.05;;;7.85;;
56541;SDS011;42438;53.174;6.730;2023-08-30T08:11:42;15.63;;;8.48;;
56541;SDS011;42438;53.174;6.730;2023-08-30T08:14:13;13.50;;;7.70;;
56541;SDS011;42438;53.174;6.730;2023-08-30T08:16:44;12.07;;;7.13;;
56541;SDS011;42438;53.174;6.730;2023-08-30T08:19:15;13.30;;;8.07;;
56541;SDS011;42438;53.174;6.730;2023-08-30T08:21:46;12.85;;;7.20;;
56541;SDS011;42438;53.174;6.730;2023-08-30T08:24:16;12.00;;;7.40;;
56541;SDS011;42438;53.174;6.730;2023-08-30T08:26:47;14.20;;;7.63;;
56541;SDS011;42438;53.174;6.730;2023-08-30T08:29:18;13.52;;;7.95;;
56541;SDS011;42438;53.174;6.730;2023-08-30T08:31:48;13.90;;;7.93;;
56541;SDS011;42438;53.174;6.730;2023-08-30T08:34:19;13.88;;;7.70;;
56541;SDS011;42438;53.174;6.730;2023-08-30T08:36:50;14.00;;;8.05;;
56541;SDS011;42438;53.174;6.730;2023-08-30T08:39:20;11.98;;;7.43;;
56541;SDS011;42438;53.174;6.730;2023-08-30T08:41:51;13.13;;;7.50;;
56541;SDS011;42438;53.174;6.730;2023-08-30T08:44:23;14.27;;;7.50;;
56541;SDS011;42438;53.174;6.730;2023-08-30T08:46:59;15.50;;;8.52;;
56541;SDS011;42438;53.174;6.730;2023-08-30T08:49:31;17.75;;;8.07;;
56541;SDS011;42438;53.174;6.730;2023-08-30T08:52:02;17.45;;;8.20;;
56541;SDS011;42438;53.174;6.730;2023-08-30T08:54:33;15.45;;;8.32;;
56541;SDS011;42438;53.174;6.730;2023-08-30T08:57:07;15.10;;;8.05;;
56541;SDS011;42438;53.174;6.730;2023-08-30T08:59:38;11.93;;;7.00;;
56541;SDS011;42438;53.174;6.730;2023-08-30T09:02:09;12.57;;;7.70;;
56541;SDS011;42438;53.174;6.730;2023-08-30T09:04:43;12.43;;;7.97;;
56541;SDS011;42438;53.174;6.730;2023-08-30T09:07:14;13.35;;;7.47;;
56541;SDS011;42438;53.174;6.730;2023-08-30T09:09:45;11.07;;;6.95;;
56541;SDS011;42438;53.174;6.730;2023-08-30T09:12:17;14.15;;;7.13;;
56541;SDS011;42438;53.174;6.730;2023-08-30T09:14:54;13.13;;;7.63;;
56541;SDS011;42438;53.174;6.730;2023-08-30T09:17:35;13.38;;;6.97;;
56541;SDS011;42438;53.174;6.730;2023-08-30T09:20:09;12.85;;;7.03;;
56541;SDS011;42438;53.174;6.730;2023-08-30T09:22:42;15.17;;;7.33;;
56541;SDS011;42438;53.174;6.730;2023-08-30T09:25:22;11.90;;;7.38;;
56541;SDS011;42438;53.174;6.730;2023-08-30T09:27:57;12.88;;;6.25;;
56541;SDS011;42438;53.174;6.730;2023-08-30T09:30:29;11.02;;;6.57;;
56541;SDS011;42438;53.174;6.730;2023-08-30T09:33:02;16.50;;;6.75;;
56541;SDS011;42438;53.174;6.730;2023-08-30T09:35:39;11.07;;;6.72;;
56541;SDS011;42438;53.174;6.730;2023-08-30T09:38:17;13.55;;;6.53;;
56541;SDS011;42438;53.174;6.730;2023-08-30T09:40:51;12.60;;;6.07;;
56541;SDS011;42438;53.174;6.730;2023-08-30T09:43:23;11.60;;;5.97;;
56541;SDS011;42438;53.174;6.730;2023-08-30T09:45:54;13.15;;;6.95;;
56541;SDS011;42438;53.174;6.730;2023-08-30T09:48:27;14.13;;;6.18;;
56541;SDS011;42438;53.174;6.730;2023-08-30T09:50:59;11.05;;;6.47;;
56541;SDS011;42438;53.174;6.730;2023-08-30T09:53:33;12.90;;;7.18;;
56541;SDS011;42438;53.174;6.730;2023-08-30T09:56:12;12.93;;;7.07;;
56541;SDS011;42438;53.174;6.730;2023-08-30T09:58:44;10.70;;;6.53;;
56541;SDS011;42438;53.174;6.730;2023-08-30T10:01:15;13.93;;;7.55;;
56541;SDS011;42438;53.174;6.730;2023-08-30T10:03:47;11.50;;;7.18;;
56541;SDS011;42438;53.174;6.730;2023-08-30T10:06:18;12.05;;;6.70;;
56541;SDS011;42438;53.174;6.730;2023-08-30T10:08:49;11.05;;;7.22;;
56541;SDS011;42438;53.174;6.730;2023-08-30T10:11:23;14.63;;;6.85;;
56541;SDS011;42438;53.174;6.730;2023-08-30T10:13:54;12.65;;;6.50;;
56541;SDS011;42438;53.174;6.730;2023-08-30T10:16:26;10.30;;;6.53;;
56541;SDS011;42438;53.174;6.730;2023-08-30T10:19:02;13.35;;;6.93;;
56541;SDS011;42438;53.174;6.730;2023-08-30T10:21:37;13.18;;;6.80;;
56541;SDS011;42438;53.174;6.730;2023-08-30T10:24:09;12.85;;;6.78;;
56541;SDS011;42438;53.174;6.730;2023-08-30T10:26:44;11.90;;;6.97;;
56541;SDS011;42438;53.174;6.730;2023-08-30T10:29:16;13.63;;;7.97;;
56541;SDS011;42438;53.174;6.730;2023-08-30T10:31:49;12.77;;;7.97;;
56541;SDS011;42438;53.174;6.730;2023-08-30T10:34:19;13.52;;;7.88;;
56541;SDS011;42438;53.174;6.730;2023-08-30T10:37:01;12.57;;;7.35;;
56541;SDS011;42438;53.174;6.730;2023-08-30T10:39:34;11.25;;;6.57;;
56541;SDS011;42438;53.174;6.730;2023-08-30T10:42:12;10.27;;;6.60;;
56541;SDS011;42438;53.174;6.730;2023-08-30T10:45:04;11.45;;;6.75;;
56541;SDS011;42438;53.174;6.730;2023-08-30T10:47:36;10.55;;;6.70;;
56541;SDS011;42438;53.174;6.730;2023-08-30T10:50:09;11.60;;;6.90;;
56541;SDS011;42438;53.174;6.730;2023-08-30T10:52:41;11.10;;;6.30;;
56541;SDS011;42438;53.174;6.730;2023-08-30T10:55:13;10.10;;;5.43;;
56541;SDS011;42438;53.174;6.730;2023-08-30T10:57:45;8.30;;;5.50;;
56541;SDS011;42438;53.174;6.730;2023-08-30T11:00:20;7.90;;;5.07;;
56541;SDS011;42438;53.174;6.730;2023-08-30T11:02:51;6.68;;;4.55;;
56541;SDS011;42438;53.174;6.730;2023-08-30T11:05:26;7.18;;;3.85;;
56541;SDS011;42438;53.174;6.730;2023-08-30T11:07:57;9.57;;;3.72;;
56541;SDS011;42438;53.174;6.730;2023-08-30T11:10:28;6.22;;;3.42;;
56541;SDS011;42438;53.174;6.730;2023-08-30T11:12:59;6.63;;;3.72;;
56541;SDS011;42438;53.174;6.730;2023-08-30T11:15:31;6.43;;;3.60;;
56541;SDS011;42438;53.174;6.730;2023-08-30T11:18:02;7.85;;;4.00;;
56541;SDS011;42438;53.174;6.730;2023-08-30T11:20:34;8.65;;;5.43;;
56541;SDS011;42438;53.174;6.730;2023-08-30T11:23:04;7.93;;;5.15;;
56541;SDS011;42438;53.174;6.730;2023-08-30T11:25:35;7.18;;;4.50;;
56541;SDS011;42438;53.174;6.730;2023-08-30T11:28:06;9.35;;;4.55;;
56541;SDS011;42438;53.174;6.730;2023-08-30T11:30:39;7.82;;;5.05;;
56541;SDS011;42438;53.174;6.730;2023-08-30T11:33:10;9.70;;;5.57;;
56541;SDS011;42438;53.174;6.730;2023-08-30T11:35:41;9.45;;;5.60;;
56541;SDS011;42438;53.174;6.730;2023-08-30T11:38:12;9.07;;;4.88;;
56541;SDS011;42438;53.174;6.730;2023-08-30T11:40:44;9.25;;;5.55;;
56541;SDS011;42438;53.174;6.730;2023-08-30T11:43:15;8.20;;;4.90;;
56541;SDS011;42438;53.174;6.730;2023-08-30T11:45:46;8.43;;;5.07;;
56541;SDS011;42438;53.174;6.730;2023-08-30T11:48:16;8.68;;;4.80;;
56541;SDS011;42438;53.174;6.730;2023-08-30T11:50:47;9.07;;;4.68;;
56541;SDS011;42438;53.174;6.730;2023-08-30T11:53:18;8.40;;;5.00;;
56541;SDS011;42438;53.174;6.730;2023-08-30T11:55:49;8.05;;;4.97;;
56541;SDS011;42438;53.174;6.730;2023-08-30T11:58:20;8.68;;;5.38;;
56541;SDS011;42438;53.174;6.730;2023-08-30T12:00:51;9.32;;;4.70;;
56541;SDS011;42438;53.174;6.730;2023-08-30T12:03:26;7.82;;;5.00;;
56541;SDS011;42438;53.174;6.730;2023-08-30T12:06:00;10.73;;;6.90;;
56541;SDS011;42438;53.174;6.730;2023-08-30T12:08:31;10.20;;;6.80;;
56541;SDS011;42438;53.174;6.730;2023-08-30T12:11:02;14.98;;;7.68;;
56541;SDS011;42438;53.174;6.730;2023-08-30T12:13:33;12.18;;;7.35;;
56541;SDS011;42438;53.174;6.730;2023-08-30T12:16:04;12.00;;;7.80;;
56541;SDS011;42438;53.174;6.730;2023-08-30T12:18:35;14.02;;;8.20;;
56541;SDS011;42438;53.174;6.730;2023-08-30T12:21:05;14.20;;;8.85;;
56541;SDS011;42438;53.174;6.730;2023-08-30T12:23:38;10.32;;;7.53;;
56541;SDS011;42438;53.174;6.730;2023-08-30T12:26:09;13.23;;;7.93;;
56541;SDS011;42438;53.174;6.730;2023-08-30T12:28:41;14.43;;;9.13;;
56541;SDS011;42438;53.174;6.730;2023-08-30T12:31:14;13.55;;;8.52;;
56541;SDS011;42438;53.174;6.730;2023-08-30T12:33:44;14.75;;;8.50;;
56541;SDS011;42438;53.174;6.730;2023-08-30T12:36:15;11.73;;;7.80;;
56541;SDS011;42438;53.174;6.730;2023-08-30T12:38:46;11.68;;;6.88;;
56541;SDS011;42438;53.174;6.730;2023-08-30T12:41:16;12.23;;;7.82;;
56541;SDS011;42438;53.174;6.730;2023-08-30T12:43:47;12.73;;;7.93;;
56541;SDS011;42438;53.174;6.730;2023-08-30T12:46:18;11.70;;;7.32;;
56541;SDS011;42438;53.174;6.730;2023-08-30T12:48:49;10.95;;;7.18;;
56541;SDS011;42438;53.174;6.730;2023-08-30T12:51:19;12.55;;;7.28;;
56541;SDS011;42438;53.174;6.730;2023-08-30T12:53:50;9.90;;;6.40;;
56541;SDS011;42438;53.174;6.730;2023-08-30T12:56:20;9.93;;;6.57;;
56541;SDS011;42438;53.174;6.730;2023-08-30T12:58:51;9.18;;;6.07;;
56541;SDS011;42438;53.174;6.730;2023-08-30T13:01:22;12.63;;;7.18;;
56541;SDS011;42438;53.174;6.730;2023-08-30T13:03:54;11.13;;;6.93;;
56541;SDS011;42438;53.174;6.730;2023-08-30T13:06:25;12.15;;;7.32;;
56541;SDS011;42438;53.174;6.730;2023-08-30T13:08:55;11.73;;;7.65;;
56541;SDS011;42438;53.174;6.730;2023-08-30T13:11:26;10.20;;;6.80;;
56541;SDS011;42438;53.174;6.730;2023-08-30T13:13:58;10.77;;;6.75;;
56541;SDS011;42438;53.174;6.730;2023-08-30T13:16:29;9.05;;;6.68;;
56541;SDS011;42438;53.174;6.730;2023-08-30T13:19:00;23.15;;;12.70;;
56541;SDS011;42438;53.174;6.730;2023-08-30T13:21:30;12.52;;;8.27;;
56541;SDS011;42438;53.174;6.730;2023-08-30T13:24:01;13.88;;;9.23;;
56541;SDS011;42438;53.174;6.730;2023-08-30T13:26:33;12.85;;;7.82;;
56541;SDS011;42438;53.174;6.730;2023-08-30T13:29:03;12.48;;;7.78;;
56541;SDS011;42438;53.174;6.730;2023-08-30T13:31:34;13.90;;;7.53;;
56541;SDS011;42438;53.174;6.730;2023-08-30T13:34:05;10.63;;;7.35;;
56541;SDS011;42438;53.174;6.730;2023-08-30T13:36:35;9.63;;;6.68;;
56541;SDS011;42438;53.174;6.730;2023-08-30T13:39:06;11.85;;;7.45;;
56541;SDS011;42438;53.174;6.730;2023-08-30T13:41:37;12.30;;;7.07;;
56541;SDS011;42438;53.174;6.730;2023-08-30T13:44:08;9.32;;;6.22;;
56541;SDS011;42438;53.174;6.730;2023-08-30T13:46:39;9.98;;;6.10;;
56541;SDS011;42438;53.174;6.730;2023-08-30T13:49:10;10.70;;;6.53;;
56541;SDS011;42438;53.174;6.730;2023-08-30T13:51:41;8.85;;;5.68;;
56541;SDS011;42438;53.174;6.730;2023-08-30T13:54:11;8.75;;;5.45;;
56541;SDS011;42438;53.174;6.730;2023-08-30T13:56:42;8.43;;;5.82;;
56541;SDS011;42438;53.174;6.730;2023-08-30T13:59:13;8.90;;;5.18;;
56541;SDS011;42438;53.174;6.730;2023-08-30T14:01:44;8.93;;;6.22;;
56541;SDS011;42438;53.174;6.730;2023-08-30T14:04:14;8.82;;;6.10;;
56541;SDS011;42438;53.174;6.730;2023-08-30T14:06:46;9.15;;;5.60;;
56541;SDS011;42438;53.174;6.730;2023-08-30T14:09:16;10.18;;;6.50;;
56541;SDS011;42438;53.174;6.730;2023-08-30T14:11:47;9.65;;;6.60;;
56541;SDS011;42438;53.174;6.730;2023-08-30T14:14:18;9.38;;;6.18;;
56541;SDS011;42438;53.174;6.730;2023-08-30T14:16:49;8.23;;;5.68;;
56541;SDS011;42438;53.174;6.730;2023-08-30T14:19:19;10.25;;;5.30;;
56541;SDS011;42438;53.174;6.730;2023-08-30T14:21:50;7.95;;;4.85;;
56541;SDS011;42438;53.174;6.730;2023-08-30T14:24:24;8.60;;;4.63;;
56541;SDS011;42438;53.174;6.730;2023-08-30T14:26:55;6.50;;;4.10;;
56541;SDS011;42438;53.174;6.730;2023-08-30T14:29:25;5.82;;;3.00;;
56541;SDS011;42438;53.174;6.730;2023-08-30T14:31:56;6.15;;;3.35;;
56541;SDS011;42438;53.174;6.730;2023-08-30T14:34:27;6.00;;;3.35;;
56541;SDS011;42438;53.174;6.730;2023-08-30T14:36:57;5.20;;;3.33;;
56541;SDS011;42438;53.174;6.730;2023-08-30T14:39:28;7.22;;;3.90;;
56541;SDS011;42438;53.174;6.730;2023-08-30T14:41:59;6.15;;;4.18;;
56541;SDS011;42438;53.174;6.730;2023-08-30T14:44:29;8.23;;;4.20;;
56541;SDS011;42438;53.174;6.730;2023-08-30T14:47:00;7.03;;;3.92;;
56541;SDS011;42438;53.174;6.730;2023-08-30T14:49:30;7.70;;;4.05;;
56541;SDS011;42438;53.174;6.730;2023-08-30T14:52:04;6.40;;;3.85;;
56541;SDS011;42438;53.174;6.730;2023-08-30T14:54:35;5.38;;;3.13;;
56541;SDS011;42438;53.174;6.730;2023-08-30T14:57:06;5.47;;;2.80;;
56541;SDS011;42438;53.174;6.730;2023-08-30T14:59:37;4.13;;;2.28;;